Time,TemperatureF,DewpointF,PressureIn,WindDirection,WindDirectionDegrees,WindSpeedMPH,WindSpeedGustMPH,Humidity,HourlyPrecipIn,Conditions,Clouds,dailyrainin,SolarRadiationWatts/m^2,SoftwareType,DateUTC
2013-07-08 00:02:00,68.0,37.0,-100.00,SE,136,3.0,5.0,32,0.00,,,0.00,0.000000,,2013-07-08 07:02:00,
2013-07-08 00:22:00,68.0,37.0,-100.00,SE,136,3.0,5.0,32,0.00,,,0.00,0.000000,,2013-07-08 07:22:00,
2013-07-08 00:34:00,68.0,37.0,-100.00,SE,136,3.0,5.0,32,0.00,,,0.00,0.000000,,2013-07-08 07:34:00,
2013-07-08 00:44:00,68.0,37.0,-100.00,SE,136,3.0,5.0,32,0.00,,,0.00,0.000000,,2013-07-08 07:44:00,
2013-07-08 00:53:00,68.0,37.0,-100.00,SE,136,3.0,5.0,32,0.00,,,0.00,0.000000,,2013-07-08 07:53:00,
2013-07-08 01:22:00,68.0,37.0,-100.00,East,96,4.0,5.0,32,0.00,,,0.00,0.000000,,2013-07-08 08:22:00,
2013-07-08 01:33:00,68.0,37.0,-100.00,East,96,4.0,5.0,32,0.00,,,0.00,0.000000,,2013-07-08 08:33:00,
2013-07-08 01:42:00,68.0,37.0,-100.00,East,96,4.0,5.0,32,0.00,,,0.00,0.000000,,2013-07-08 08:42:00,
2013-07-08 01:53:00,68.0,37.0,-100.00,East,96,4.0,5.0,32,0.00,,,0.00,0.000000,,2013-07-08 08:53:00,
2013-07-08 02:01:00,68.0,37.0,-100.00,East,96,4.0,5.0,32,0.00,,,0.00,0.000000,,2013-07-08 09:01:00,
2013-07-08 02:22:00,67.0,37.0,-100.00,ESE,111,4.0,5.0,33,0.00,,,0.00,0.000000,,2013-07-08 09:22:00,
2013-07-08 02:34:00,67.0,37.0,-100.00,ESE,111,4.0,5.0,33,0.00,,,0.00,0.000000,,2013-07-08 09:34:00,
2013-07-08 02:43:00,67.0,37.0,-100.00,ESE,111,4.0,5.0,33,0.00,,,0.00,0.000000,,2013-07-08 09:43:00,
2013-07-08 02:53:00,67.0,37.0,-100.00,ESE,111,4.0,5.0,33,0.00,,,0.00,0.000000,,2013-07-08 09:53:00,
2013-07-08 03:01:00,67.0,37.0,-100.00,ESE,111,4.0,5.0,33,0.00,,,0.00,0.000000,,2013-07-08 10:01:00,
2013-07-08 03:22:00,64.0,36.0,-100.00,East,94,3.0,5.0,35,0.00,,,0.00,0.000000,,2013-07-08 10:22:00,
2013-07-08 03:34:00,64.0,36.0,-100.00,East,94,3.0,5.0,35,0.00,,,0.00,0.000000,,2013-07-08 10:34:00,
2013-07-08 03:43:00,64.0,36.0,-100.00,East,94,3.0,5.0,35,0.00,,,0.00,0.000000,,2013-07-08 10:43:00,
2013-07-08 04:33:00,66.0,36.0,-100.00,ESE,108,4.0,5.0,33,0.00,,,0.00,0.000000,,2013-07-08 11:33:00,
2013-07-08 04:43:00,66.0,36.0,-100.00,ESE,108,4.0,5.0,33,0.00,,,0.00,0.000000,,2013-07-08 11:43:00,
2013-07-08 04:53:00,66.0,36.0,-100.00,ESE,108,4.0,5.0,33,0.00,,,0.00,0.000000,,2013-07-08 11:53:00,
2013-07-08 05:01:00,66.0,36.0,-100.00,ESE,108,4.0,5.0,33,0.00,,,0.00,0.000000,,2013-07-08 12:01:00,
2013-07-08 05:22:00,65.0,35.0,-100.00,ENE,70,3.0,5.0,33,0.00,,,0.00,0.000000,,2013-07-08 12:22:00,
2013-07-08 05:34:00,65.0,35.0,-100.00,ENE,70,3.0,5.0,33,0.00,,,0.00,0.000000,,2013-07-08 12:34:00,
2013-07-08 05:43:00,65.0,35.0,-100.00,ENE,70,3.0,5.0,33,0.00,,,0.00,0.000000,,2013-07-08 12:43:00,
2013-07-08 05:53:00,65.0,35.0,-100.00,ENE,70,3.0,5.0,33,0.00,,,0.00,0.000000,,2013-07-08 12:53:00,
2013-07-08 06:01:00,65.0,35.0,-100.00,ENE,70,3.0,5.0,33,0.00,,,0.00,0.000000,,2013-07-08 13:01:00,
2013-07-08 06:22:00,65.0,34.0,-100.00,ESE,110,4.0,5.0,31,0.00,,,0.00,3.000000,,2013-07-08 13:22:00,
2013-07-08 06:33:00,65.0,34.0,-100.00,ESE,110,4.0,5.0,31,0.00,,,0.00,3.000000,,2013-07-08 13:33:00,
2013-07-08 06:42:00,65.0,34.0,-100.00,ESE,110,4.0,5.0,31,0.00,,,0.00,3.000000,,2013-07-08 13:42:00,
2013-07-08 06:53:00,65.0,34.0,-100.00,ESE,110,4.0,5.0,31,0.00,,,0.00,3.000000,,2013-07-08 13:53:00,
2013-07-08 07:01:00,65.0,34.0,-100.00,ESE,110,4.0,5.0,31,0.00,,,0.00,3.000000,,2013-07-08 14:01:00,
2013-07-08 07:23:00,73.0,41.0,-100.00,NE,50,2.0,4.0,31,0.00,,,0.00,83.000000,,2013-07-08 14:23:00,
2013-07-08 07:34:00,73.0,41.0,-100.00,NE,50,2.0,4.0,31,0.00,,,0.00,83.000000,,2013-07-08 14:34:00,
2013-07-08 07:43:00,73.0,41.0,-100.00,NE,50,2.0,4.0,31,0.00,,,0.00,83.000000,,2013-07-08 14:43:00,
2013-07-08 07:53:00,73.0,41.0,-100.00,NE,50,2.0,4.0,31,0.00,,,0.00,83.000000,,2013-07-08 14:53:00,
2013-07-08 08:01:00,73.0,41.0,-100.00,NE,50,2.0,4.0,31,0.00,,,0.00,83.000000,,2013-07-08 15:01:00,
2013-07-08 08:22:00,82.0,34.0,-100.00,ESE,119,1.0,3.0,18,0.00,,,0.00,299.000000,,2013-07-08 15:22:00,
2013-07-08 08:33:00,82.0,34.0,-100.00,ESE,119,1.0,3.0,18,0.00,,,0.00,299.000000,,2013-07-08 15:33:00,
2013-07-08 08:43:00,82.0,34.0,-100.00,ESE,119,1.0,3.0,18,0.00,,,0.00,299.000000,,2013-07-08 15:43:00,
2013-07-08 08:53:00,82.0,34.0,-100.00,ESE,119,1.0,3.0,18,0.00,,,0.00,299.000000,,2013-07-08 15:53:00,
2013-07-08 09:01:00,82.0,34.0,-100.00,ESE,119,1.0,3.0,18,0.00,,,0.00,299.000000,,2013-07-08 16:01:00,
2013-07-08 09:02:00,84.0,31.0,-100.00,WNW,294,5.0,9.0,15,0.00,,,0.00,536.000000,,2013-07-08 16:02:00,
2013-07-08 09:22:00,84.0,31.0,-100.00,WNW,294,5.0,9.0,15,0.00,,,0.00,536.000000,,2013-07-08 16:22:00,
2013-07-08 09:43:00,84.0,31.0,-100.00,WNW,294,5.0,9.0,15,0.00,,,0.00,536.000000,,2013-07-08 16:43:00,
2013-07-08 09:56:00,84.0,31.0,-100.00,WNW,294,5.0,9.0,15,0.00,,,0.00,536.000000,,2013-07-08 16:56:00,
2013-07-08 10:37:00,86.0,27.0,-100.00,West,279,6.0,11.0,12,0.00,,,0.00,759.000000,,2013-07-08 17:37:00,
2013-07-08 10:48:00,86.0,27.0,-100.00,West,279,6.0,11.0,12,0.00,,,0.00,759.000000,,2013-07-08 17:48:00,
2013-07-08 10:54:00,86.0,27.0,-100.00,West,279,6.0,11.0,12,0.00,,,0.00,759.000000,,2013-07-08 17:54:00,
2013-07-08 11:01:00,86.0,27.0,-100.00,West,279,6.0,11.0,12,0.00,,,0.00,759.000000,,2013-07-08 18:01:00,
2013-07-08 11:54:00,89.0,28.0,-100.00,West,278,5.0,11.0,11,0.00,,,0.00,952.000000,,2013-07-08 18:54:00,
2013-07-08 14:46:00,89.0,32.0,-100.00,SE,135,11.0,18.0,13,0.00,,,0.00,1149.000000,,2013-07-08 21:46:00,
2013-07-08 15:02:00,88.0,29.0,-100.00,SE,146,11.0,20.0,12,0.00,,,0.00,1102.000000,,2013-07-08 22:02:00,
2013-07-08 15:47:00,88.0,29.0,-100.00,SE,146,11.0,20.0,12,0.00,,,0.00,1102.000000,,2013-07-08 22:47:00,
2013-07-08 16:48:00,88.0,33.0,-100.00,SE,133,11.0,19.0,14,0.00,,,0.00,982.000000,,2013-07-08 23:48:00,
2013-07-08 17:02:00,86.0,33.0,-100.00,SE,143,11.0,20.0,15,0.00,,,0.00,797.000000,,2013-07-09 00:02:00,
2013-07-08 18:02:00,-999.0,-99.9,-100.00,SE,142,9.0,19.0,20,0.00,,,0.00,579.000000,,2013-07-09 01:02:00,
2013-07-08 18:58:00,84.0,39.0,-100.00,SE,142,9.0,19.0,20,0.00,,,0.00,579.000000,,2013-07-09 01:58:00,
2013-07-08 19:02:00,81.0,33.0,-100.00,SSE,152,8.0,17.0,18,0.00,,,0.00,336.000000,,2013-07-09 02:02:00,
2013-07-08 19:58:00,81.0,33.0,-100.00,SSE,152,8.0,17.0,18,0.00,,,0.00,336.000000,,2013-07-09 02:58:00,
2013-07-08 20:02:00,77.0,32.0,-100.00,SSE,147,7.0,13.0,19,0.00,,,0.00,97.000000,,2013-07-09 03:02:00,
2013-07-08 20:47:00,77.0,32.0,-100.00,SSE,147,7.0,13.0,19,0.00,,,0.00,97.000000,,2013-07-09 03:47:00,
2013-07-08 21:01:00,77.0,32.0,-100.00,SSE,147,7.0,13.0,19,0.00,,,0.00,97.000000,,2013-07-09 04:01:00,
2013-07-08 21:02:00,75.0,29.0,-100.00,SE,142,6.0,11.0,18,0.00,,,0.00,1.000000,,2013-07-09 04:02:00,
2013-07-08 21:22:00,75.0,29.0,-100.00,SE,142,6.0,11.0,18,0.00,,,0.00,1.000000,,2013-07-09 04:22:00,
2013-07-08 21:34:00,75.0,29.0,-100.00,SE,142,6.0,11.0,18,0.00,,,0.00,1.000000,,2013-07-09 04:34:00,
2013-07-08 21:43:00,75.0,29.0,-100.00,SE,142,6.0,11.0,18,0.00,,,0.00,1.000000,,2013-07-09 04:43:00,
2013-07-08 21:53:00,75.0,29.0,-100.00,SE,142,6.0,11.0,18,0.00,,,0.00,1.000000,,2013-07-09 04:53:00,
2013-07-08 22:22:00,74.0,28.0,-100.00,SE,134,5.0,10.0,18,0.00,,,0.00,0.000000,,2013-07-09 05:22:00,
2013-07-08 22:34:00,74.0,28.0,-100.00,SE,134,5.0,10.0,18,0.00,,,0.00,0.000000,,2013-07-09 05:34:00,
2013-07-08 22:42:00,74.0,28.0,-100.00,SE,134,5.0,10.0,18,0.00,,,0.00,0.000000,,2013-07-09 05:42:00,
2013-07-08 22:52:00,74.0,28.0,-100.00,SE,134,5.0,10.0,18,0.00,,,0.00,0.000000,,2013-07-09 05:52:00,
2013-07-08 23:01:00,74.0,28.0,-100.00,SE,134,5.0,10.0,18,0.00,,,0.00,0.000000,,2013-07-09 06:01:00,
2013-07-08 23:02:00,68.0,28.0,-100.00,ESE,104,5.0,7.0,22,0.00,,,0.00,0.000000,,2013-07-09 06:02:00,
2013-07-08 23:34:00,68.0,28.0,-100.00,ESE,104,5.0,7.0,22,0.00,,,0.00,0.000000,,2013-07-09 06:34:00,
2013-07-08 23:43:00,68.0,28.0,-100.00,ESE,104,5.0,7.0,22,0.00,,,0.00,0.000000,,2013-07-09 06:43:00,
2013-07-08 23:53:00,68.0,28.0,-100.00,ESE,104,5.0,7.0,22,0.00,,,0.00,0.000000,,2013-07-09 06:53:00,